Time;durP1;ratioP1;P1;durP2;ratioP2;P2;SDS_P1;SDS_P2;PMS_P1;PMS_P2;Temp;Humidity;BMP_temperature;BMP_pressure;BME280_temperature;BME280_humidity;BME280_pressure;Samples;Min_cycle;Max_cycle;Signal;HPM_P1;HPM_P2
2022/08/18 00:00:22;;;;;;;2.67;2.47;;;;;;;;;;10498081;28;20270;-70
2022/08/18 00:05:24;;;;;;;2.47;2.40;;;;;;;;;;10503675;28;20232;-71
2022/08/18 00:10:26;;;;;;;2.15;2.15;;;;;;;;;;10496585;28;20236;-72
2022/08/18 00:15:27;;;;;;;2.53;2.47;;;;;;;;;;10492070;28;20189;-71
2022/08/18 00:20:28;;;;;;;2.22;2.10;;;;;;;;;;10493234;28;21124;-72
2022/08/18 00:25:29;;;;;;;2.42;2.33;;;;;;;;;;10495794;28;21673;-70
2022/08/18 00:30:30;;;;;;;2.63;2.53;;;;;;;;;;10498319;28;20684;-72
2022/08/18 00:35:33;;;;;;;2.53;2.30;;;;;;;;;;10496072;28;20173;-71
2022/08/18 00:40:39;;;;;;;2.25;2.25;;;;;;;;;;10496618;28;20316;-71
2022/08/18 00:45:42;;;;;;;2.00;2.00;;;;;;;;;;10422893;28;20836;-71
2022/08/18 00:50:45;;;;;;;2.22;2.13;;;;;;;;;;10449491;28;20228;-72
2022/08/18 00:55:48;;;;;;;2.50;2.50;;;;;;;;;;10456998;28;20209;-72
2022/08/18 01:00:51;;;;;;;3.25;2.80;;;;;;;;;;10493096;28;20222;-72
2022/08/18 01:05:55;;;;;;;2.25;2.15;;;;;;;;;;10487393;28;20231;-72
2022/08/18 01:10:57;;;;;;;2.60;2.50;;;;;;;;;;10450692;28;20239;-71
2022/08/18 01:21:49;;;;;;;2.42;2.35;;;;;;;;;;10490926;28;20293;-72
2022/08/18 01:26:48;;;;;;;2.42;2.35;;;;;;;;;;10457332;28;20305;-72
2022/08/18 01:31:54;;;;;;;2.22;2.22;;;;;;;;;;10459568;28;20279;-71
2022/08/18 01:36:56;;;;;;;3.83;3.63;;;;;;;;;;10480016;28;20214;-72
2022/08/18 01:41:57;;;;;;;3.85;3.67;;;;;;;;;;10492537;28;20700;-72
2022/08/18 01:46:58;;;;;;;2.58;2.58;;;;;;;;;;10472208;28;20250;-71
2022/08/18 01:51:59;;;;;;;2.40;2.30;;;;;;;;;;10477742;28;21200;-71
2022/08/18 01:57:00;;;;;;;3.47;3.28;;;;;;;;;;10480053;28;20209;-71
2022/08/18 02:02:01;;;;;;;3.72;3.40;;;;;;;;;;10476302;28;20225;-72
2022/08/18 02:07:03;;;;;;;3.20;3.10;;;;;;;;;;10488140;28;20206;-71
2022/08/18 02:12:05;;;;;;;3.05;2.85;;;;;;;;;;10484819;28;20317;-72
2022/08/18 02:17:08;;;;;;;2.78;2.65;;;;;;;;;;10485974;28;20215;-72
2022/08/18 02:22:11;;;;;;;3.10;3.10;;;;;;;;;;10486552;28;20646;-71
2022/08/18 02:27:13;;;;;;;3.53;3.25;;;;;;;;;;10487273;28;20217;-71
2022/08/18 02:32:14;;;;;;;3.22;3.15;;;;;;;;;;10483123;28;20626;-72
2022/08/18 02:37:15;;;;;;;3.08;2.92;;;;;;;;;;10481991;28;20213;-72
2022/08/18 02:42:16;;;;;;;3.97;3.53;;;;;;;;;;10471671;28;20224;-72
2022/08/18 02:47:21;;;;;;;3.20;3.00;;;;;;;;;;10489758;28;20280;-71
2022/08/18 02:52:22;;;;;;;3.35;3.17;;;;;;;;;;10486559;28;21000;-72
2022/08/18 02:57:23;;;;;;;2.80;2.70;;;;;;;;;;10472647;28;20279;-71
2022/08/18 03:02:24;;;;;;;2.47;2.38;;;;;;;;;;10465101;28;20226;-72
2022/08/18 03:07:25;;;;;;;3.35;3.15;;;;;;;;;;10446557;28;20213;-71
2022/08/18 03:12:26;;;;;;;2.58;2.53;;;;;;;;;;10417807;28;20213;-72
2022/08/18 03:17:27;;;;;;;2.78;2.75;;;;;;;;;;10445181;28;20218;-72
2022/08/18 03:22:28;;;;;;;2.70;2.60;;;;;;;;;;10419564;28;20932;-72
2022/08/18 03:27:30;;;;;;;2.50;2.50;;;;;;;;;;10416638;28;20305;-71
2022/08/18 03:32:31;;;;;;;2.42;2.33;;;;;;;;;;10445137;28;20221;-71
2022/08/18 03:37:32;;;;;;;3.25;3.05;;;;;;;;;;10444377;28;20221;-72
2022/08/18 03:42:33;;;;;;;3.40;3.30;;;;;;;;;;10418570;28;20210;-71
2022/08/18 03:47:34;;;;;;;3.97;3.75;;;;;;;;;;10415117;28;20242;-71
2022/08/18 03:52:36;;;;;;;2.72;2.63;;;;;;;;;;10419309;28;20306;-71
2022/08/18 03:57:37;;;;;;;4.93;3.35;;;;;;;;;;10452115;28;20358;-71
2022/08/18 04:02:39;;;;;;;3.42;3.33;;;;;;;;;;10452147;28;20229;-72
2022/08/18 04:07:40;;;;;;;4.53;4.22;;;;;;;;;;10458060;28;20242;-72
2022/08/18 04:12:41;;;;;;;4.28;4.00;;;;;;;;;;10453364;28;20218;-72
2022/08/18 04:17:44;;;;;;;4.20;4.00;;;;;;;;;;10458670;28;20999;-71
2022/08/18 04:22:46;;;;;;;4.43;4.22;;;;;;;;;;10456404;28;20234;-70
2022/08/18 04:27:47;;;;;;;4.47;4.18;;;;;;;;;;10455842;28;20208;-72
2022/08/18 04:32:49;;;;;;;5.30;4.90;;;;;;;;;;10484559;28;20224;-73
2022/08/18 04:37:50;;;;;;;7.82;7.10;;;;;;;;;;10483588;28;20224;-72
2022/08/18 04:42:51;;;;;;;10.20;8.77;;;;;;;;;;10488674;28;20269;-70
2022/08/18 04:47:52;;;;;;;11.50;10.20;;;;;;;;;;10463095;28;20210;-73
2022/08/18 04:58:15;;;;;;;16.23;10.98;;;;;;;;;;10486078;28;20325;-68
2022/08/18 05:03:16;;;;;;;12.80;10.45;;;;;;;;;;10451542;28;20227;-72
2022/08/18 05:08:17;;;;;;;14.52;11.52;;;;;;;;;;10446251;28;20253;-71
2022/08/18 05:13:19;;;;;;;13.65;10.82;;;;;;;;;;10447798;28;20241;-72
2022/08/18 05:18:23;;;;;;;12.60;10.60;;;;;;;;;;10444273;28;20572;-69
2022/08/18 05:23:24;;;;;;;14.82;10.70;;;;;;;;;;10441887;28;20227;-71
2022/08/18 05:28:25;;;;;;;12.02;10.43;;;;;;;;;;10458159;28;20217;-71
2022/08/18 05:33:26;;;;;;;14.32;11.20;;;;;;;;;;10443077;28;20223;-71
2022/08/18 05:38:53;;;;;;;10.95;9.52;;;;;;;;;;10462406;28;20217;-71
2022/08/18 05:43:55;;;;;;;13.73;10.65;;;;;;;;;;10446099;28;20779;-72
2022/08/18 05:48:56;;;;;;;12.90;10.27;;;;;;;;;;10457994;28;20214;-71
2022/08/18 05:59:20;;;;;;;10.70;9.02;;;;;;;;;;10456000;28;20214;-72
2022/08/18 06:04:25;;;;;;;10.00;8.50;;;;;;;;;;10474985;28;20316;-71
2022/08/18 06:09:35;;;;;;;9.43;8.43;;;;;;;;;;10497213;28;20908;-71
2022/08/18 06:14:37;;;;;;;9.55;8.57;;;;;;;;;;10494037;28;20222;-71
2022/08/18 06:19:51;;;;;;;9.18;8.38;;;;;;;;;;10496896;28;20279;-72
2022/08/18 06:25:00;;;;;;;8.43;7.60;;;;;;;;;;10495995;28;20313;-72
2022/08/18 06:30:07;;;;;;;8.60;7.80;;;;;;;;;;10498374;28;20210;-72
2022/08/18 06:35:24;;;;;;;8.75;7.90;;;;;;;;;;10494537;28;20230;-72
2022/08/18 06:40:25;;;;;;;9.43;8.20;;;;;;;;;;10494098;28;20225;-71
2022/08/18 06:45:37;;;;;;;9.57;7.25;;;;;;;;;;10498127;28;20220;-71
2022/08/18 06:50:48;;;;;;;8.75;7.95;;;;;;;;;;10494478;28;20694;-72
2022/08/18 06:55:50;;;;;;;8.13;7.05;;;;;;;;;;10493875;28;20210;-71
2022/08/18 07:00:51;;;;;;;8.32;6.97;;;;;;;;;;10495583;28;20218;-71
2022/08/18 07:06:00;;;;;;;7.47;6.88;;;;;;;;;;10488568;28;20609;-72
2022/08/18 07:11:22;;;;;;;7.78;7.07;;;;;;;;;;10479722;28;20209;-70
2022/08/18 07:16:29;;;;;;;7.53;6.85;;;;;;;;;;10495854;28;20644;-72
2022/08/18 07:21:32;;;;;;;6.65;6.15;;;;;;;;;;10479696;28;20304;-70
2022/08/18 07:26:51;;;;;;;7.75;7.05;;;;;;;;;;10490904;28;20299;-70
2022/08/18 07:31:54;;;;;;;6.97;6.38;;;;;;;;;;10492157;28;20907;-70
2022/08/18 07:37:01;;;;;;;6.65;6.05;;;;;;;;;;10491939;28;20301;-70
2022/08/18 07:42:21;;;;;;;6.03;5.57;;;;;;;;;;10491626;28;20222;-71
2022/08/18 07:47:37;;;;;;;7.55;6.85;;;;;;;;;;10494557;28;20217;-70
2022/08/18 07:52:41;;;;;;;6.53;6.13;;;;;;;;;;10491328;28;20222;-71
2022/08/18 07:57:47;;;;;;;6.97;6.38;;;;;;;;;;10481184;28;20237;-71
2022/08/18 08:02:48;;;;;;;6.40;5.90;;;;;;;;;;10490905;28;20372;-71
2022/08/18 08:07:54;;;;;;;6.53;6.03;;;;;;;;;;10460702;28;20206;-71
2022/08/18 08:13:03;;;;;;;6.38;5.90;;;;;;;;;;10488456;28;20304;-71
2022/08/18 08:18:22;;;;;;;6.68;6.15;;;;;;;;;;10496306;28;20637;-70
2022/08/18 08:23:43;;;;;;;6.53;6.03;;;;;;;;;;10493962;28;20239;-70
2022/08/18 08:28:47;;;;;;;6.50;5.90;;;;;;;;;;10477788;28;20296;-71
2022/08/18 08:33:53;;;;;;;5.72;5.43;;;;;;;;;;10498133;28;20210;-70
2022/08/18 08:39:01;;;;;;;6.20;5.72;;;;;;;;;;10483690;28;20213;-70
2022/08/18 08:44:17;;;;;;;6.90;6.40;;;;;;;;;;10490116;28;20218;-71
2022/08/18 08:49:37;;;;;;;5.82;5.43;;;;;;;;;;10492194;28;20307;-71
2022/08/18 08:54:48;;;;;;;5.00;4.70;;;;;;;;;;10491841;28;20241;-71
2022/08/18 08:59:51;;;;;;;5.43;5.13;;;;;;;;;;10476680;28;20209;-71
2022/08/18 09:04:55;;;;;;;6.05;5.65;;;;;;;;;;10493856;28;20218;-71
2022/08/18 09:10:11;;;;;;;5.53;5.22;;;;;;;;;;10482524;28;20206;-70
2022/08/18 09:15:29;;;;;;;5.15;4.85;;;;;;;;;;10498684;28;20217;-71
2022/08/18 09:20:47;;;;;;;5.10;4.80;;;;;;;;;;10492856;28;20213;-70
2022/08/18 09:25:50;;;;;;;4.72;4.53;;;;;;;;;;10492535;28;20815;-71
2022/08/18 09:31:01;;;;;;;4.13;3.92;;;;;;;;;;10495074;28;20226;-72
2022/08/18 09:36:13;;;;;;;3.80;3.70;;;;;;;;;;10494165;28;20275;-71
2022/08/18 09:41:32;;;;;;;3.80;3.70;;;;;;;;;;10497559;28;20217;-71
2022/08/18 09:46:42;;;;;;;3.20;3.10;;;;;;;;;;10497937;28;20213;-72
2022/08/18 09:51:43;;;;;;;4.15;4.05;;;;;;;;;;10493777;28;20218;-72
2022/08/18 09:56:49;;;;;;;3.70;3.60;;;;;;;;;;10449722;28;20213;-72
2022/08/18 10:01:50;;;;;;;4.55;4.25;;;;;;;;;;10496682;28;20716;-71
2022/08/18 10:06:52;;;;;;;4.28;4.07;;;;;;;;;;10495431;28;20266;-72
2022/08/18 10:11:59;;;;;;;3.10;3.00;;;;;;;;;;10487189;28;20217;-72
2022/08/18 10:17:09;;;;;;;4.20;4.00;;;;;;;;;;10463854;28;20213;-72
2022/08/18 10:22:10;;;;;;;3.42;3.33;;;;;;;;;;10481138;28;20214;-71
2022/08/18 10:27:29;;;;;;;3.50;3.15;;;;;;;;;;10493573;28;20213;-71
2022/08/18 10:32:42;;;;;;;3.22;3.03;;;;;;;;;;10491308;28;20347;-71
2022/08/18 10:37:44;;;;;;;3.53;3.40;;;;;;;;;;10498351;28;20245;-72
2022/08/18 10:42:50;;;;;;;3.47;3.17;;;;;;;;;;10493387;28;20222;-73
2022/08/18 10:47:59;;;;;;;2.90;2.80;;;;;;;;;;10462615;28;20304;-74
2022/08/18 10:53:07;;;;;;;2.83;2.83;;;;;;;;;;10493256;28;20260;-71
2022/08/18 10:58:25;;;;;;;3.30;3.20;;;;;;;;;;10489118;28;20277;-71
2022/08/18 11:03:40;;;;;;;3.50;3.40;;;;;;;;;;10489611;28;20213;-72
2022/08/18 11:08:43;;;;;;;4.13;3.95;;;;;;;;;;10492785;28;20217;-72
2022/08/18 11:13:59;;;;;;;4.05;3.80;;;;;;;;;;10491150;28;20222;-73
2022/08/18 11:19:07;;;;;;;3.63;3.53;;;;;;;;;;10488991;28;20222;-72
2022/08/18 11:24:11;;;;;;;5.20;4.80;;;;;;;;;;10486347;28;20217;-72
2022/08/18 11:29:23;;;;;;;4.45;4.25;;;;;;;;;;10489249;28;20210;-71
2022/08/18 11:34:27;;;;;;;4.07;3.95;;;;;;;;;;10459628;28;20275;-71
2022/08/18 11:39:29;;;;;;;3.70;3.50;;;;;;;;;;10491795;28;20286;-71
2022/08/18 11:44:31;;;;;;;4.80;4.50;;;;;;;;;;10484205;28;20655;-72
2022/08/18 11:49:33;;;;;;;4.22;4.03;;;;;;;;;;10487780;28;20223;-72
2022/08/18 11:54:41;;;;;;;4.80;4.60;;;;;;;;;;10488289;28;20815;-71
2022/08/18 11:59:42;;;;;;;4.65;4.30;;;;;;;;;;10487900;28;20221;-72
2022/08/18 12:04:43;;;;;;;3.92;3.83;;;;;;;;;;10475949;28;20226;-71
2022/08/18 12:09:46;;;;;;;3.90;3.80;;;;;;;;;;10489586;28;20258;-72
2022/08/18 12:14:55;;;;;;;3.65;3.55;;;;;;;;;;10486252;28;20573;-72
2022/08/18 12:19:56;;;;;;;3.83;3.70;;;;;;;;;;10492211;28;20676;-72
2022/08/18 12:24:57;;;;;;;3.70;3.60;;;;;;;;;;10489003;28;20304;-72
2022/08/18 12:30:02;;;;;;;3.35;3.25;;;;;;;;;;10475074;28;20232;-72
2022/08/18 12:35:04;;;;;;;3.13;3.03;;;;;;;;;;10484582;28;20210;-71
2022/08/18 12:40:07;;;;;;;2.70;2.60;;;;;;;;;;10477182;28;20214;-72
2022/08/18 12:45:08;;;;;;;2.03;2.03;;;;;;;;;;10489125;28;20210;-73
2022/08/18 12:50:09;;;;;;;2.70;2.60;;;;;;;;;;10485541;28;20651;-70
2022/08/18 12:55:10;;;;;;;2.78;2.70;;;;;;;;;;10461342;28;20657;-71
2022/08/18 13:00:12;;;;;;;3.28;3.28;;;;;;;;;;10460057;28;20185;-71
2022/08/18 13:05:13;;;;;;;2.53;2.53;;;;;;;;;;10491521;28;20257;-71
2022/08/18 13:10:14;;;;;;;3.33;3.22;;;;;;;;;;10498942;28;20552;-72
2022/08/18 13:15:15;;;;;;;3.30;3.20;;;;;;;;;;10462754;28;20233;-71
2022/08/18 13:20:17;;;;;;;3.88;3.67;;;;;;;;;;10482553;28;20755;-71
2022/08/18 13:25:18;;;;;;;4.03;3.83;;;;;;;;;;10497458;28;20206;-72
2022/08/18 13:30:19;;;;;;;2.85;2.75;;;;;;;;;;10496080;28;20175;-72
2022/08/18 13:35:20;;;;;;;3.25;3.25;;;;;;;;;;10453443;28;20224;-72
2022/08/18 13:40:21;;;;;;;3.33;3.28;;;;;;;;;;10481032;28;20225;-71
2022/08/18 13:45:22;;;;;;;3.38;3.20;;;;;;;;;;10450310;28;20233;-72
2022/08/18 13:50:24;;;;;;;2.90;2.90;;;;;;;;;;10478785;28;20279;-71
2022/08/18 13:55:27;;;;;;;3.13;3.13;;;;;;;;;;10476777;28;20205;-70
2022/08/18 14:00:28;;;;;;;3.53;3.42;;;;;;;;;;10482939;28;20273;-72
2022/08/18 14:05:30;;;;;;;3.40;3.30;;;;;;;;;;10488439;28;20241;-72
2022/08/18 14:10:32;;;;;;;2.90;2.80;;;;;;;;;;10458383;28;20769;-71
2022/08/18 14:15:36;;;;;;;3.30;3.20;;;;;;;;;;10480406;28;20220;-71
2022/08/18 14:31:17;;;;;;;3.40;3.30;;;;;;;;;;10475434;28;20205;-71
2022/08/18 14:36:18;;;;;;;2.97;2.90;;;;;;;;;;10477630;28;20210;-72
2022/08/18 14:41:20;;;;;;;2.83;2.80;;;;;;;;;;10478478;28;20237;-72
2022/08/18 14:46:21;;;;;;;3.38;3.28;;;;;;;;;;10477344;28;20222;-72
2022/08/18 14:51:23;;;;;;;3.47;3.38;;;;;;;;;;10472017;28;20218;-72
2022/08/18 14:56:24;;;;;;;2.92;2.83;;;;;;;;;;10475681;28;20218;-72
2022/08/18 15:01:25;;;;;;;2.95;2.85;;;;;;;;;;10472442;28;20206;-73
2022/08/18 15:06:26;;;;;;;3.03;2.92;;;;;;;;;;10479715;28;20236;-73
2022/08/18 15:11:27;;;;;;;2.53;2.53;;;;;;;;;;10483446;28;20600;-70
2022/08/18 15:16:33;;;;;;;2.60;2.50;;;;;;;;;;10473364;28;20217;-73
2022/08/18 15:26:55;;;;;;;2.78;2.67;;;;;;;;;;10486415;28;20218;-67
2022/08/18 15:31:57;;;;;;;3.08;2.97;;;;;;;;;;10485633;28;20270;-71
2022/08/18 15:36:58;;;;;;;3.00;2.90;;;;;;;;;;10478769;28;20209;-70
2022/08/18 15:41:59;;;;;;;3.08;2.97;;;;;;;;;;10475023;28;20710;-71
2022/08/18 15:47:03;;;;;;;3.65;3.38;;;;;;;;;;10479267;28;20209;-74
2022/08/18 15:52:05;;;;;;;2.85;2.85;;;;;;;;;;10451626;28;20221;-75
2022/08/18 15:57:07;;;;;;;3.03;2.83;;;;;;;;;;10475739;28;20678;-79
2022/08/18 16:02:09;;;;;;;2.92;2.83;;;;;;;;;;10476171;28;20221;-72
2022/08/18 16:07:10;;;;;;;2.63;2.63;;;;;;;;;;10477446;28;20252;-70
2022/08/18 16:12:11;;;;;;;2.97;2.92;;;;;;;;;;10454068;28;20213;-70
2022/08/18 16:17:13;;;;;;;2.55;2.45;;;;;;;;;;10484553;28;20727;-69
2022/08/18 16:22:14;;;;;;;3.13;3.03;;;;;;;;;;10449553;28;20221;-71
2022/08/18 16:27:15;;;;;;;3.17;3.17;;;;;;;;;;10482048;28;20226;-70
2022/08/18 16:32:16;;;;;;;3.20;3.10;;;;;;;;;;10482000;28;20217;-71
2022/08/18 16:37:18;;;;;;;3.40;3.30;;;;;;;;;;10485378;28;20653;-73
2022/08/18 16:42:19;;;;;;;3.13;3.03;;;;;;;;;;10491009;28;20222;-76
2022/08/18 16:47:20;;;;;;;3.60;3.50;;;;;;;;;;10487918;28;20209;-75
2022/08/18 16:52:22;;;;;;;3.78;3.58;;;;;;;;;;10471438;28;20242;-76
2022/08/18 17:04:06;;;;;;;3.38;3.28;;;;;;;;;;10470717;28;20746;-82
2022/08/18 17:08:04;;;;;;;3.80;3.70;;;;;;;;;;10491663;28;20210;-79
2022/08/18 17:13:05;;;;;;;3.78;3.33;;;;;;;;;;10502936;28;20240;-82
2022/08/18 17:18:07;;;;;;;2.97;2.85;;;;;;;;;;10511119;28;20217;-78
2022/08/18 17:23:08;;;;;;;3.38;3.28;;;;;;;;;;10492267;28;20263;-84
2022/08/18 17:28:09;;;;;;;3.42;3.22;;;;;;;;;;10486751;28;20298;-75
2022/08/18 17:33:12;;;;;;;3.20;3.10;;;;;;;;;;10489603;28;20214;-75
2022/08/18 17:38:35;;;;;;;3.63;3.38;;;;;;;;;;10475196;28;20636;-76
2022/08/18 17:43:37;;;;;;;3.75;3.55;;;;;;;;;;10467496;28;20246;-73
2022/08/18 17:48:44;;;;;;;3.55;3.45;;;;;;;;;;10461808;28;20221;-74
2022/08/18 17:53:46;;;;;;;3.75;3.55;;;;;;;;;;10485473;28;20226;-74
2022/08/18 17:59:02;;;;;;;3.65;3.55;;;;;;;;;;10492423;28;20301;-75
2022/08/18 18:04:04;;;;;;;3.30;3.20;;;;;;;;;;10484423;28;20228;-75
2022/08/18 18:09:27;;;;;;;4.03;3.83;;;;;;;;;;10480634;28;20217;-73
2022/08/18 18:14:38;;;;;;;3.22;3.13;;;;;;;;;;10482459;28;24573;-81
2022/08/18 18:19:39;;;;;;;4.00;3.83;;;;;;;;;;10490310;28;20241;-79
2022/08/18 18:24:48;;;;;;;3.30;3.20;;;;;;;;;;10481056;28;20214;-76
2022/08/18 18:29:54;;;;;;;3.85;3.65;;;;;;;;;;10485468;28;20198;-77
2022/08/18 18:35:06;;;;;;;3.40;3.30;;;;;;;;;;10484478;28;20242;-77
2022/08/18 18:40:16;;;;;;;3.50;3.30;;;;;;;;;;10485879;28;20214;-79
2022/08/18 18:45:29;;;;;;;3.88;3.60;;;;;;;;;;10490636;28;20579;-79
2022/08/18 18:50:43;;;;;;;3.67;3.47;;;;;;;;;;10479958;28;20979;-74
2022/08/18 18:55:52;;;;;;;3.58;3.42;;;;;;;;;;10451851;28;20238;-71
2022/08/18 19:00:58;;;;;;;3.10;3.00;;;;;;;;;;10477718;28;20206;-71
2022/08/18 19:06:18;;;;;;;3.42;3.33;;;;;;;;;;10475188;28;20283;-72
2022/08/18 19:11:38;;;;;;;2.67;2.67;;;;;;;;;;10481382;28;20209;-75
2022/08/18 19:16:40;;;;;;;3.28;3.08;;;;;;;;;;10485346;28;20205;-75
2022/08/18 19:21:43;;;;;;;3.10;3.00;;;;;;;;;;10478788;28;20318;-75
2022/08/18 19:26:49;;;;;;;2.88;2.78;;;;;;;;;;10473118;28;20221;-75
2022/08/18 19:32:06;;;;;;;3.28;3.17;;;;;;;;;;10489011;28;20217;-75
2022/08/18 19:37:29;;;;;;;3.22;3.13;;;;;;;;;;10458928;28;20275;-75
2022/08/18 19:42:33;;;;;;;3.88;3.67;;;;;;;;;;10479771;28;20218;-74
2022/08/18 19:48:00;;;;;;;3.53;3.42;;;;;;;;;;10483872;28;20236;-76
2022/08/18 19:53:20;;;;;;;4.50;4.30;;;;;;;;;;10489479;28;20296;-75
2022/08/18 19:58:28;;;;;;;4.68;4.32;;;;;;;;;;10485534;28;20312;-72
2022/08/18 20:03:44;;;;;;;3.90;3.70;;;;;;;;;;10451778;28;20237;-74
2022/08/18 20:09:01;;;;;;;4.30;4.10;;;;;;;;;;10478640;28;20662;-73
2022/08/18 20:14:02;;;;;;;4.88;4.68;;;;;;;;;;10469864;28;20660;-73
2022/08/18 20:19:24;;;;;;;4.13;3.92;;;;;;;;;;10492883;28;20218;-72
2022/08/18 20:24:44;;;;;;;4.32;4.13;;;;;;;;;;10490385;28;20226;-71
2022/08/18 20:29:45;;;;;;;5.45;5.15;;;;;;;;;;10480651;28;20218;-72
2022/08/18 20:34:47;;;;;;;5.93;5.45;;;;;;;;;;10485009;28;20546;-72
2022/08/18 20:39:53;;;;;;;5.45;5.07;;;;;;;;;;10493755;28;20221;-72
2022/08/18 20:44:57;;;;;;;6.53;6.03;;;;;;;;;;10492924;28;20217;-72
2022/08/18 20:50:20;;;;;;;6.53;6.10;;;;;;;;;;10490201;28;20229;-71
2022/08/18 20:55:31;;;;;;;6.10;5.70;;;;;;;;;;10490360;28;20214;-72
2022/08/18 21:00:33;;;;;;;7.18;6.55;;;;;;;;;;10492634;28;20228;-71
2022/08/18 21:05:36;;;;;;;6.32;5.90;;;;;;;;;;10487660;28;20234;-71
2022/08/18 21:10:38;;;;;;;7.00;6.60;;;;;;;;;;10486366;28;20214;-71
2022/08/18 21:15:39;;;;;;;6.70;6.30;;;;;;;;;;10466128;28;20220;-71
2022/08/18 21:20:41;;;;;;;6.80;6.30;;;;;;;;;;10494560;28;20367;-71
2022/08/18 21:25:48;;;;;;;7.30;6.70;;;;;;;;;;10488427;28;20312;-71
2022/08/18 21:31:00;;;;;;;6.60;6.18;;;;;;;;;;10493585;28;20239;-71
2022/08/18 21:36:12;;;;;;;6.70;6.22;;;;;;;;;;10479791;28;20213;-70
2022/08/18 21:41:13;;;;;;;6.65;6.03;;;;;;;;;;10490758;28;20233;-71
2022/08/18 21:46:22;;;;;;;6.35;5.93;;;;;;;;;;10494115;28;20226;-71
2022/08/18 21:51:29;;;;;;;6.88;6.38;;;;;;;;;;10480305;28;20217;-71
2022/08/18 21:56:32;;;;;;;6.80;6.22;;;;;;;;;;10490520;28;20218;-71
2022/08/18 22:01:34;;;;;;;6.05;5.65;;;;;;;;;;10493858;28;20728;-71
2022/08/18 22:06:37;;;;;;;6.35;5.78;;;;;;;;;;10448127;28;1254564;-71
2022/08/18 22:17:17;;;;;;;6.38;5.95;;;;;;;;;;10489803;28;20731;-71
2022/08/18 22:27:39;;;;;;;6.47;5.97;;;;;;;;;;10490137;28;20244;-72
2022/08/18 22:32:44;;;;;;;5.20;4.90;;;;;;;;;;10489066;28;20206;-72
2022/08/18 22:37:45;;;;;;;6.05;5.68;;;;;;;;;;10490630;28;20225;-72
2022/08/18 22:42:46;;;;;;;6.28;5.78;;;;;;;;;;10487670;28;20260;-72
2022/08/18 22:47:47;;;;;;;6.32;5.93;;;;;;;;;;10484168;28;20210;-71
2022/08/18 22:52:48;;;;;;;7.28;6.72;;;;;;;;;;10489148;28;20283;-72
2022/08/18 22:57:50;;;;;;;6.43;5.90;;;;;;;;;;10472140;28;20206;-71
2022/08/18 23:02:52;;;;;;;6.53;5.97;;;;;;;;;;10493256;28;20225;-71
2022/08/18 23:07:53;;;;;;;6.57;6.07;;;;;;;;;;10489444;28;20218;-72
2022/08/18 23:12:55;;;;;;;7.30;6.80;;;;;;;;;;10478647;28;20263;-71
2022/08/18 23:17:56;;;;;;;7.50;6.82;;;;;;;;;;10490825;28;20229;-71
2022/08/18 23:22:57;;;;;;;8.32;7.60;;;;;;;;;;10490018;28;20290;-71
2022/08/18 23:27:58;;;;;;;7.80;7.20;;;;;;;;;;10484572;28;20210;-71
2022/08/18 23:32:59;;;;;;;9.00;8.07;;;;;;;;;;10487393;28;20788;-71
2022/08/18 23:38:01;;;;;;;8.55;7.82;;;;;;;;;;10488105;28;20228;-71
2022/08/18 23:43:03;;;;;;;7.95;7.30;;;;;;;;;;10484482;28;20256;-71
2022/08/18 23:48:05;;;;;;;9.43;8.20;;;;;;;;;;10466764;28;20222;-71
2022/08/18 23:53:07;;;;;;;9.68;8.68;;;;;;;;;;10478758;28;20230;-71
2022/08/18 23:58:09;;;;;;;9.45;8.60;;;;;;;;;;10492881;28;20210;-71
